Saturday, May 28, 2016
18:02 UTC
  |  Log In   |  Register Free
Airport Search:

Skyway Estates Airport
(60G)

Skyway Estates Airport Diagram
No Airport Diagram Available

FAA data valid effective Mar 31 2016 - May 26 2016 (unless otherwise noted).

 
 
 
 
 
 
 
 
 
 
 
 
 
 
Current Aviation Weather for 60G

Weather Summary


Current weather conditions are not available for 60G - The nearest NOAA weather station is at FPK, (7.1 nm SW from 60G)

The most recent METAR observation for 60G was updated at: 12:55 UTC
METAR for 60G is not available. Closest METAR is for KFPK 7.1 nm NE
KFPK  (7.1 nm NE)   (most recent observation was updated at 28:17 UTC)
281754Z AUTO 19011G17KT 10SM SCT034 SCT040 27/19 A3000 RMK AO2 T02650189 10272 20204

KTEW  (10.1 nm NW)   (most recent observation was updated at 28:17 UTC)
281753Z AUTO 19007G14KT 150V240 10SM CLR 26/18 A3002 RMK AO2 T02570175

TAF for 60G is not available.
KLAN  (12.1 nm SW)   (most recent observation was updatred at 28:17 UTC)
281740Z 2818/2918 18014G22KT P6SM VCSH BKN040 FM290000 17010KT P6SM SCT150 FM290800 19008KT 4SM HZ SCT002 FM291300 21010KT P6SM SCT040 FM291600 21014G24KT P6SM VCTS BKN040CB


KJXN  (21.2 nm NW)   (most recent observation was updatred at 28:17 UTC)
281740Z 2818/2918 19014G22KT P6SM VCSH BKN040 FM290000 17010KT P6SM SCT150 FM290800 19008KT 4SM HZ SCT002 FM291300 21010KT P6SM SCT040 FM291600 21014G24KT P6SM VCTS BKN040CB


KBTL  (31.3 nm NE)   (most recent observation was updatred at 28:17 UTC)
281740Z 2818/2918 19014G22KT P6SM VCSH BKN040 FM290000 17010KT P6SM SCT150 FM290800 19008KT 4SM HZ SCT002 FM291300 21010KT P6SM SCT040 FM291600 21014G24KT P6SM VCTS BKN040CB
GlobalAir.com is loading additional information.
 Current Weather at FPK
77.0 F° (25.2 C°)

South winds at 13.8 mph
Pressure:
30.01 in
Humidity:
66%
Wind:
South at 13.8 mph
Dew Point:
65.3 F° (18.5 C°)
Visibility:
10.00 mi
60G NOAA Radar




Find All Airport Services Find A Hotel Find A Rental Car Find A Golf Course Find A Restaurant $100 Hamburger



Airport Weather Forecast for 60G

Translated METAR for KFPK (1754 UTC)
METAR:
KFPK 281754Z AUTO 19011G17KT 10SM SCT034 SCT040 27/19 A3000 RMK AO2 T02650189 10272 20204
Conditions at:
KFPK (Fitch H Beach, MI) observed 1754 UTC 28 May 2016
Temperature:
27°C (80.6°F)
Dewpoint:
19°C (66.2°F) [RH = 61.6]
Pressure:
30 inches Hg (1015.9 mb)
Winds:
from the S (190 degrees) at 12.7 mph (11 knots: 5.7 m/s)
gusting to 19.6 mph (17 knots: 8.7 m/s)
Visibility:
10 mile(s)
Ceiling:
at least 12,000 feet AGL
Clouds:
Scattered Clouds at 3,400 feet AGL
Scattered Clouds at 4,000 feet AGL
Remarks:
site is un-manned
site is automated and HAS a precipitation sensor

Translated TAF for KLAN (Capital Region Intl, MI) (1740 UTC)
TAF text:
KLAN 281740Z 2818/2918 18014G22KT P6SM VCSH BKN040
Forecast period:
Saturday May 28 2016 18:00 UTC - Sunday May 29 2016 18:00 UTC
Forecast type:
FROM: standard forecast or significant change
Winds:
from the S (180 degrees) at 16.1 mph (14 knots: 7.2 m/s)
gusting to 25.3 mph (22 knots: 11.3 m/s)
Visibility:
6 or more mile(s) (9.7+ km)
Ceiling:
4,000 feet AGL
Clouds:
Broken Cloud Cover at 4,000 feet AGL
Weather:
Moderate In Vicinity Shower(s)
TAF text:
FM290000 17010KT P6SM SCT150
Forecast period:
Sunday May 29 2016 00:00 UTC - Sunday May 29 2016 08:00 UTC
Forecast type:
FROM: standard forecast or significant change
Winds:
from the S (170 degrees) at 11.5 mph (10 knots: 5.1 m/s)
Visibility:
6 or more mile(s) (9.7+ km)
Ceiling:
at least 12,000 feet AGL
Clouds:
Scattered Clouds at 15,000 feet AGL
Weather:
no significant weather observed at this time
TAF text:
FM290800 19008KT 4SM HZ SCT002
Forecast period:
Sunday May 29 2016 08:00 UTC - Sunday May 29 2016 13:00 UTC
Forecast type:
FROM: standard forecast or significant change
Winds:
from the S (190 degrees) at 9.2 mph (8 knots: 4.1 m/s)
Visibility:
4 mile(s) (6.4 km)
Ceiling:
at least 12,000 feet AGL
Clouds:
Scattered Clouds at 200 feet AGL
Weather:
Moderate Haze
TAF text:
FM291300 21010KT P6SM SCT040
Forecast period:
Sunday May 29 2016 13:00 UTC - Sunday May 29 2016 16:00 UTC
Forecast type:
FROM: standard forecast or significant change
Winds:
from the SSW (210 degrees) at 11.5 mph (10 knots: 5.1 m/s)
Visibility:
6 or more mile(s) (9.7+ km)
Ceiling:
at least 12,000 feet AGL
Clouds:
Scattered Clouds at 4,000 feet AGL
Weather:
no significant weather observed at this time
TAF text:
FM291600 21014G24KT P6SM VCTS BKN040CB
Forecast period:
Sunday May 29 2016 16:00 UTC - Sunday May 29 2016 18:00 UTC
Forecast type:
FROM: standard forecast or significant change
Winds:
from the SSW (210 degrees) at 16.1 mph (14 knots: 7.2 m/s)
gusting to 27.6 mph (24 knots: 12.3 m/s)
Visibility:
6 or more mile(s) (9.7+ km)
Ceiling:
Clouds:
Weather:
Moderate In Vicinity Thunderstorm
FBO's on the Field
FBO Company Facility Photos Services Transportation Aviation Fuel Prices: Prices include tax
Catering Weather Repair Courtesy Rental Type 100LL JetA JetA+ MOGAS 8087
 
Add another FBO Facility Photos Catering Weather Repair Courtesy Rental Type 100LL JetA JetA+ MOGAS 8087
Services Transportation Aviation Fuel Prices: Prices include tax
There are no FBO's currently reporting fuel at 60G. List your FBO now


model-print
model-print
model-print
model-print